Port Jefferson, NY (11777)

12:59 AM EDT on August 05, 2015 (GMT -0400)
Canyon Creek | | Change Station
CLOSE
Current Station
Personal Weather Station
Location: Port Jefferson, NY
Elevation: 233 ft
Nearby Weather Stations

Elev 233 ft 40.94 °N, 73.06 °W | Updated 3 seconds ago

Clear
Clear
72.5 °F
Feels Like 74 °F
N
2.8
Wind Variable Wind from SSE
Gusts 4.5 mph

Today
High -- | Low -- °F
--% Chance of Precip.
Yesterday
High -- | Low -- °F
Precip. -- in
5:51 AM 8:03 PM
Waning Gibbous, 71% visible
Pressure 29.89 in
Visibility 10.0 miles
Clouds Clear
Heat Index 74 °F
Dew Point 64 °F
Humidity 75%
Rainfall 0.00 in
Snow Depth Not available.
UV 0 out of 12
Pollen 7.40 out of 12
Air Quality Not available.
Flu Activity Not available.
METAR KISP 050456Z AUTO 00000KT 10SM CLR 22/13 A2989 RMK AO2 SLP121 T02220133 403170206

More Conditions Fewer Conditions

Pressure 29.89 in
Visibility 10.0 miles
Clouds Clear
Heat Index 74 °F
Dew Point 64 °F
Humidity 75%
Rainfall 0.00 in
Snow Depth Not available.
UV 0 out of 12
Pollen 7.40 out of 12
Air Quality Not available.
Flu Activity Not available.
METAR KISP 050456Z AUTO 00000KT 10SM CLR 22/13 A2989 RMK AO2 SLP121 T02220133 403170206

More Conditions Fewer Conditions

10-Day Weather Forecast

×

Almanac

Astronomy

Aug. 05, 2015 Rise Set
Actual Time
Civil Twilight
Nautical Twilight
Astronomical Twilight
Moon
Length of Visible Light
Length of Day
Tomorrow will be .
, % of the Moon is Illuminated

Today's Extremes

State Highs State Lows

Community

WunderPhotos

Upload Photos

1,844,094 photos uploaded!

WunderBlogs® & News

Nearby

Air Quality

  Air Quality AQ Index Pollutant
Not available.

Snow Depth

Station Depth Elevation

Earthquake Activity

City Distance Mag. Time & Date
Minimum magnitude displayed is 2.5.

Coastal Water Temperatures

Place Temperature

Stations

Nearby Weather Stations

Station Location Temp. Windchill Dew Point Humidity Wind Precip. Elev Updated Type